Time;durP1;ratioP1;P1;durP2;ratioP2;P2;SDS_P1;SDS_P2;PMS_P1;PMS_P2;Temp;Humidity;BMP_temperature;BMP_pressure;BME280_temperature;BME280_humidity;BME280_pressure;Samples;Min_cycle;Max_cycle;Signal;HPM_P1;HPM_P2
2020/12/09 00:01:00;;;;;;;37.70;21.37;;;;;;;2.51;100.00;99352.73;646198;220;25828;-74
2020/12/09 00:03:28;;;;;;;44.47;22.10;;;;;;;2.51;99.96;99350.16;643451;221;24826;-74
2020/12/09 00:05:56;;;;;;;35.83;20.60;;;;;;;2.47;100.00;99352.62;642277;221;25110;-72
2020/12/09 00:08:23;;;;;;;47.83;26.30;;;;;;;2.38;100.00;99361.34;639761;222;24848;-75
2020/12/09 00:10:51;;;;;;;47.77;25.43;;;;;;;2.42;99.55;99360.67;643696;221;24814;-75
2020/12/09 00:13:19;;;;;;;40.83;24.00;;;;;;;2.31;99.79;99359.36;643045;221;24831;-75
2020/12/09 00:15:47;;;;;;;38.10;22.07;;;;;;;2.41;99.83;99358.22;648323;221;24828;-75
2020/12/09 00:18:15;;;;;;;35.87;21.30;;;;;;;2.37;99.91;99360.99;649495;220;24829;-75
2020/12/09 00:20:43;;;;;;;36.90;21.50;;;;;;;2.29;100.00;99363.80;644404;221;24821;-74
2020/12/09 00:23:11;;;;;;;32.83;20.17;;;;;;;2.36;100.00;99359.36;643530;222;24909;-74
2020/12/09 00:25:38;;;;;;;38.90;20.73;;;;;;;2.40;100.00;99365.56;643792;222;24817;-74
2020/12/09 00:28:06;;;;;;;33.37;21.40;;;;;;;2.03;100.00;99372.12;647299;221;24821;-74
2020/12/09 00:30:34;;;;;;;34.87;20.97;;;;;;;1.87;100.00;99376.72;645112;221;28033;-74
2020/12/09 00:33:02;;;;;;;33.80;20.30;;;;;;;1.76;100.00;99372.36;647871;221;24834;-73
2020/12/09 00:35:30;;;;;;;34.10;20.40;;;;;;;1.65;100.00;99371.02;642749;222;24973;-74
2020/12/09 00:37:58;;;;;;;40.47;22.50;;;;;;;1.49;100.00;99370.02;646595;221;24829;-73
2020/12/09 00:40:26;;;;;;;36.87;21.80;;;;;;;1.53;100.00;99365.48;640874;224;24848;-73
2020/12/09 00:42:53;;;;;;;40.27;22.40;;;;;;;1.63;100.00;99367.76;636594;225;24844;-73
2020/12/09 00:45:21;;;;;;;39.97;21.10;;;;;;;1.60;100.00;99368.80;636398;225;24828;-73
2020/12/09 00:47:49;;;;;;;46.08;28.07;;;;;;;1.96;100.00;99367.87;636483;221;32775;-73
2020/12/09 00:52:51;;;;;;;39.50;22.93;;;;;;;1.90;100.00;99362.39;642579;221;27981;-75
2020/12/09 00:55:19;;;;;;;41.30;23.87;;;;;;;1.76;100.00;99365.48;643660;222;24831;-72
2020/12/09 00:57:47;;;;;;;38.80;22.63;;;;;;;1.65;100.00;99360.31;646128;221;28033;-74
2020/12/09 01:00:15;;;;;;;37.50;21.37;;;;;;;1.59;100.00;99363.78;645218;222;28000;-74
2020/12/09 01:02:43;;;;;;;37.93;21.33;;;;;;;1.64;100.00;99359.95;647299;220;28039;-73
2020/12/09 01:05:11;;;;;;;37.03;22.30;;;;;;;1.73;100.00;99362.34;640066;221;27014;-74
2020/12/09 01:07:39;;;;;;;35.13;20.10;;;;;;;1.96;100.00;99364.03;645879;221;27002;-74
2020/12/09 01:10:07;;;;;;;42.70;20.83;;;;;;;2.16;100.00;99363.06;642905;220;25154;-71
2020/12/09 01:12:34;;;;;;;40.85;25.82;;;;;;;2.54;100.00;99360.22;638830;221;43484;-73
2020/12/09 01:15:02;;;;;;;36.00;21.93;;;;;;;2.41;100.00;99359.03;645191;220;23725;-74
2020/12/09 01:17:30;;;;;;;35.90;21.00;;;;;;;2.37;100.00;99354.58;645325;221;24820;-73
2020/12/09 01:19:58;;;;;;;31.90;20.27;;;;;;;2.33;100.00;99363.44;646691;222;24975;-73
2020/12/09 01:22:26;;;;;;;34.03;20.10;;;;;;;1.92;100.00;99366.94;640311;222;24892;-72
2020/12/09 01:24:54;;;;;;;38.88;24.30;;;;;;;2.02;100.00;99367.45;636838;221;32997;-73
2020/12/09 01:27:23;;;;;;;39.90;22.30;;;;;;;2.02;100.00;99375.14;642424;222;26917;-74
2020/12/09 01:29:51;;;;;;;36.73;20.87;;;;;;;2.09;100.00;99374.22;647316;221;24834;-73
2020/12/09 01:32:19;;;;;;;37.63;22.10;;;;;;;2.17;100.00;99378.80;642077;222;24812;-73
2020/12/09 01:34:47;;;;;;;37.07;21.70;;;;;;;2.18;100.00;99380.44;646809;221;25152;-74
2020/12/09 01:37:15;;;;;;;35.93;20.47;;;;;;;2.02;100.00;99380.27;644022;221;24828;-73
2020/12/09 01:39:43;;;;;;;36.10;20.23;;;;;;;1.99;100.00;99383.06;646354;221;26990;-73
2020/12/09 01:42:11;;;;;;;35.70;19.60;;;;;;;1.84;100.00;99391.05;644218;222;26935;-73
2020/12/09 01:44:39;;;;;;;34.73;19.97;;;;;;;1.92;100.00;99395.95;635716;225;25492;-73
2020/12/09 01:47:07;;;;;;;40.08;25.90;;;;;;;1.99;100.00;99397.63;630197;226;32815;-73
2020/12/09 01:49:35;;;;;;;38.50;22.60;;;;;;;1.86;100.00;99388.72;647282;221;23976;-74
2020/12/09 01:52:03;;;;;;;41.75;26.20;;;;;;;2.10;100.00;99392.52;630777;222;32786;-72
2020/12/09 01:54:31;;;;;;;45.33;28.42;;;;;;;2.06;100.00;99390.65;641881;221;32905;-73
2020/12/09 01:57:06;;;;;;;37.70;22.70;;;;;;;1.72;100.00;99393.55;647661;221;23645;-73
2020/12/09 01:59:34;;;;;;;39.97;21.83;;;;;;;1.68;100.00;99394.68;636336;223;24844;-75
2020/12/09 02:02:02;;;;;;;37.87;20.23;;;;;;;1.78;100.00;99396.95;636109;225;24852;-75
2020/12/09 02:04:30;;;;;;;35.77;19.60;;;;;;;1.74;100.00;99399.39;649271;221;24847;-75
2020/12/09 02:06:58;;;;;;;40.27;22.13;;;;;;;1.79;100.00;99401.15;646281;221;25077;-75
2020/12/09 02:09:26;;;;;;;38.47;21.43;;;;;;;1.92;100.00;99397.70;648646;222;24789;-75
2020/12/09 02:11:54;;;;;;;39.47;21.20;;;;;;;1.91;100.00;99401.20;637516;223;24825;-76
2020/12/09 02:14:22;;;;;;;39.97;20.77;;;;;;;1.97;100.00;99400.75;641266;220;24809;-74
2020/12/09 02:16:50;;;;;;;37.73;20.40;;;;;;;2.08;100.00;99403.36;647397;220;28024;-75
2020/12/09 02:19:18;;;;;;;36.57;20.30;;;;;;;2.23;100.00;99406.09;644224;220;24836;-76
2020/12/09 02:21:46;;;;;;;35.17;18.80;;;;;;;2.33;100.00;99407.05;643916;221;24813;-74
2020/12/09 02:24:14;;;;;;;32.30;19.93;;;;;;;2.37;100.00;99404.61;640470;221;24831;-73
2020/12/09 02:26:42;;;;;;;34.60;19.37;;;;;;;2.17;100.00;99414.24;648501;220;25325;-74
2020/12/09 02:29:10;;;;;;;38.53;24.02;;;;;;;2.41;100.00;99410.82;637149;220;32890;-74
2020/12/09 02:31:38;;;;;;;36.13;21.40;;;;;;;2.44;100.00;99410.12;646460;220;23702;-75
2020/12/09 02:34:06;;;;;;;31.80;19.07;;;;;;;2.32;100.00;99420.00;641537;222;24832;-75
2020/12/09 02:36:34;;;;;;;34.97;20.27;;;;;;;2.34;100.00;99410.44;641631;222;24827;-76
2020/12/09 02:39:02;;;;;;;32.63;19.20;;;;;;;2.41;100.00;99417.23;648354;222;24823;-75
2020/12/09 02:41:30;;;;;;;28.97;17.80;;;;;;;2.32;100.00;99415.69;646679;221;24896;-75
2020/12/09 02:43:57;;;;;;;33.80;20.27;;;;;;;2.33;100.00;99416.03;642352;221;24836;-76
2020/12/09 02:46:25;;;;;;;33.57;19.23;;;;;;;2.28;100.00;99425.83;642302;222;24830;-75
2020/12/09 02:48:53;;;;;;;35.20;20.77;;;;;;;2.30;100.00;99420.11;647224;221;24814;-75
2020/12/09 02:51:21;;;;;;;35.23;19.93;;;;;;;2.35;100.00;99424.90;641703;222;24818;-76
2020/12/09 02:53:49;;;;;;;33.97;19.07;;;;;;;2.24;100.00;99424.39;641067;221;24853;-74
2020/12/09 02:56:17;;;;;;;41.45;25.60;;;;;;;2.54;100.00;99428.23;636248;221;33056;-76
2020/12/09 02:58:45;;;;;;;44.27;22.30;;;;;;;2.21;100.00;99432.31;644638;221;23677;-75
2020/12/09 03:01:13;;;;;;;39.60;21.13;;;;;;;2.38;100.00;99436.21;637903;222;24929;-74
2020/12/09 03:03:46;;;;;;;32.77;19.90;;;;;;;2.45;100.00;99441.73;641240;222;26184;-76
2020/12/09 03:06:09;;;;;;;32.83;19.43;;;;;;;2.71;100.00;99441.09;638937;221;24822;-76
2020/12/09 03:08:37;;;;;;;30.93;19.33;;;;;;;2.80;100.00;99437.81;648216;221;24829;-75
2020/12/09 03:11:04;;;;;;;28.27;17.50;;;;;;;2.78;100.00;99440.97;643018;221;29048;-75
2020/12/09 03:13:32;;;;;;;31.33;18.67;;;;;;;2.90;100.00;99439.58;644097;221;24831;-76
2020/12/09 03:16:00;;;;;;;34.40;20.00;;;;;;;2.92;100.00;99439.00;641746;221;24816;-75
2020/12/09 03:18:28;;;;;;;31.03;19.40;;;;;;;3.01;100.00;99448.23;643555;221;27020;-71
2020/12/09 03:20:56;;;;;;;39.92;24.55;;;;;;;3.57;100.00;99447.73;629720;225;32781;-74
2020/12/09 03:23:24;;;;;;;36.37;20.97;;;;;;;3.06;100.00;99446.13;636464;225;23723;-73
2020/12/09 03:25:51;;;;;;;31.97;19.43;;;;;;;2.83;100.00;99454.30;638764;223;31128;-73
2020/12/09 03:28:19;;;;;;;31.00;19.73;;;;;;;2.60;100.00;99457.28;650013;221;24784;-74
2020/12/09 03:30:47;;;;;;;35.23;19.47;;;;;;;2.66;100.00;99452.96;637753;224;24794;-74
2020/12/09 03:33:15;;;;;;;34.80;20.23;;;;;;;2.48;100.00;99447.91;636595;225;24839;-73
2020/12/09 03:35:43;;;;;;;31.50;19.13;;;;;;;2.35;100.00;99453.94;637910;224;24843;-73
2020/12/09 03:38:11;;;;;;;35.77;20.00;;;;;;;2.35;100.00;99461.63;637017;226;24839;-73
2020/12/09 03:40:39;;;;;;;34.60;19.93;;;;;;;2.40;100.00;99462.60;639272;224;31202;-73
2020/12/09 03:43:06;;;;;;;34.57;20.50;;;;;;;2.43;100.00;99466.69;636695;226;25056;-73
2020/12/09 03:45:34;;;;;;;32.67;20.50;;;;;;;2.37;100.00;99466.19;634251;226;27217;-71
2020/12/09 03:48:02;;;;;;;39.73;21.77;;;;;;;2.43;100.00;99471.81;636412;224;24826;-74
2020/12/09 03:50:30;;;;;;;39.60;20.53;;;;;;;2.50;100.00;99476.84;643400;221;24816;-74
2020/12/09 03:52:58;;;;;;;31.83;18.63;;;;;;;2.56;100.00;99475.13;642406;219;24829;-73
2020/12/09 03:55:26;;;;;;;33.00;20.63;;;;;;;2.64;100.00;99479.21;644129;221;24835;-74
2020/12/09 03:57:56;;;;;;;32.90;19.80;;;;;;;2.78;100.00;99484.14;644380;222;24842;-74
2020/12/09 04:00:21;;;;;;;31.50;18.90;;;;;;;2.88;100.00;99479.97;640734;222;28061;-71
2020/12/09 04:02:49;;;;;;;34.27;19.73;;;;;;;2.91;100.00;99482.30;642278;221;24844;-74
2020/12/09 04:05:17;;;;;;;37.13;20.93;;;;;;;2.84;100.00;99491.41;643429;222;29047;-73
2020/12/09 04:07:45;;;;;;;33.77;19.43;;;;;;;2.90;100.00;99482.42;641000;221;24835;-72
2020/12/09 04:10:13;;;;;;;31.73;18.90;;;;;;;3.03;100.00;99481.86;640203;221;24825;-73
2020/12/09 04:12:41;;;;;;;33.40;20.00;;;;;;;3.10;100.00;99479.66;640103;221;26319;-74
2020/12/09 04:15:08;;;;;;;34.50;18.73;;;;;;;2.97;100.00;99479.30;640604;221;24829;-73
2020/12/09 04:17:36;;;;;;;35.10;18.40;;;;;;;3.10;100.00;99482.23;633941;225;24877;-74
2020/12/09 04:20:04;;;;;;;35.27;20.33;;;;;;;3.03;100.00;99487.45;636430;225;24891;-74
2020/12/09 04:22:32;;;;;;;34.43;20.10;;;;;;;3.14;100.00;99488.30;636186;225;24888;-73
2020/12/09 04:25:00;;;;;;;28.53;18.73;;;;;;;3.28;100.00;99486.78;646676;219;24778;-73
2020/12/09 04:27:28;;;;;;;28.67;18.37;;;;;;;3.29;99.66;99492.73;646317;221;24756;-74
2020/12/09 04:29:56;;;;;;;33.30;21.00;;;;;;;3.43;99.60;99493.78;636239;224;24825;-72
2020/12/09 04:32:24;;;;;;;35.53;19.73;;;;;;;3.39;99.10;99489.01;636541;226;24843;-72
2020/12/09 04:34:51;;;;;;;36.20;23.30;;;;;;;3.79;98.44;99482.86;630887;225;32814;-74
2020/12/09 04:37:19;;;;;;;37.73;24.02;;;;;;;3.85;97.25;99483.68;633071;223;32783;-74
2020/12/09 04:39:49;;;;;;;31.90;21.85;;;;;;;3.92;96.25;99480.14;644406;221;32652;-74
2020/12/09 04:42:18;;;;;;;28.30;19.57;;;;;;;3.45;98.13;99485.48;636459;222;23715;-74
2020/12/09 04:44:46;;;;;;;32.43;20.63;;;;;;;3.55;98.88;99500.56;638266;222;24819;-74
2020/12/09 04:47:16;;;;;;;35.90;19.83;;;;;;;3.60;98.70;99493.77;636970;225;25881;-74
2020/12/09 04:49:46;;;;;;;35.60;19.80;;;;;;;3.42;99.06;99499.86;637060;225;24821;-73
2020/12/09 04:52:27;;;;;;;31.33;18.73;;;;;;;3.34;99.34;99512.46;642821;221;25573;-73
2020/12/09 04:54:58;;;;;;;52.43;33.60;;;;;;;3.92;97.42;99510.54;632009;222;32717;-74
2020/12/09 04:57:28;;;;;;;96.53;52.43;;;;;;;3.54;98.34;99512.25;644689;221;24813;-72
2020/12/09 04:59:58;;;;;;;61.43;33.13;;;;;;;3.51;98.40;99514.56;642534;221;25238;-73
2020/12/09 05:02:28;;;;;;;53.90;30.53;;;;;;;3.51;98.75;99516.31;644048;221;24825;-72
2020/12/09 05:04:56;;;;;;;41.53;24.47;;;;;;;3.52;99.39;99515.41;641372;221;24821;-72
2020/12/09 05:07:24;;;;;;;29.93;19.50;;;;;;;3.54;98.88;99519.48;645786;221;25083;-73
2020/12/09 05:09:52;;;;;;;31.57;19.73;;;;;;;3.46;98.65;99518.43;645890;221;24830;-73
2020/12/09 05:12:20;;;;;;;30.77;19.40;;;;;;;3.31;99.09;99523.45;646874;221;24856;-73
2020/12/09 05:14:48;;;;;;;34.03;19.30;;;;;;;3.10;100.00;99534.89;640592;222;24809;-73
2020/12/09 05:17:16;;;;;;;34.50;19.77;;;;;;;3.09;100.00;99540.46;640569;221;24835;-73
2020/12/09 05:19:44;;;;;;;32.20;19.83;;;;;;;2.99;100.00;99543.37;643124;220;24808;-73
2020/12/09 05:22:15;;;;;;;31.73;18.70;;;;;;;3.21;100.00;99536.16;645485;220;24805;-73
2020/12/09 05:24:43;;;;;;;33.63;19.67;;;;;;;3.23;100.00;99544.10;642519;222;25005;-73
2020/12/09 05:27:11;;;;;;;32.00;19.50;;;;;;;3.31;100.00;99544.00;643135;221;24824;-73
2020/12/09 05:29:45;;;;;;;36.53;20.77;;;;;;;3.27;100.00;99540.86;646388;221;25006;-73
2020/12/09 05:32:13;;;;;;;31.20;18.87;;;;;;;3.38;100.00;99546.45;640747;221;24820;-71
2020/12/09 05:34:41;;;;;;;35.27;19.43;;;;;;;3.35;100.00;99544.94;643659;221;24845;-72
2020/12/09 05:37:09;;;;;;;31.53;19.43;;;;;;;3.28;100.00;99547.16;637415;221;26962;-74
2020/12/09 05:39:45;;;;;;;29.20;17.70;;;;;;;3.07;100.00;99553.89;641208;222;24844;-74
2020/12/09 05:42:14;;;;;;;32.93;19.83;;;;;;;3.06;100.00;99548.87;647705;221;24848;-73
2020/12/09 05:44:42;;;;;;;30.80;18.97;;;;;;;3.14;100.00;99545.28;644305;222;24829;-73
2020/12/09 05:47:10;;;;;;;32.57;20.40;;;;;;;3.26;100.00;99542.61;640529;221;25132;-73
2020/12/09 05:49:39;;;;;;;34.97;19.13;;;;;;;3.21;100.00;99552.86;648193;216;24834;-73
2020/12/09 05:52:10;;;;;;;30.40;18.60;;;;;;;3.08;100.00;99546.53;648501;221;24822;-73
2020/12/09 05:54:38;;;;;;;30.13;17.90;;;;;;;3.20;100.00;99546.91;640956;220;24802;-71
2020/12/09 05:57:07;;;;;;;30.90;18.90;;;;;;;3.37;100.00;99549.95;645402;220;26076;-72
2020/12/09 05:59:37;;;;;;;86.28;59.18;;;;;;;3.54;99.53;99549.05;640541;219;32773;-74
2020/12/09 06:02:08;;;;;;;54.50;36.53;;;;;;;3.58;99.61;99544.48;647163;220;23665;-74
2020/12/09 06:04:43;;;;;;;41.60;28.57;;;;;;;3.56;99.39;99546.36;649373;220;25029;-74
2020/12/09 06:07:12;;;;;;;35.65;24.67;;;;;;;4.11;97.87;99540.33;636245;221;32780;-76
2020/12/09 06:09:40;;;;;;;29.00;20.53;;;;;;;3.81;98.60;99549.98;643535;221;24805;-75
2020/12/09 06:12:08;;;;;;;28.87;19.30;;;;;;;3.69;98.64;99553.48;647480;221;24824;-76
2020/12/09 06:14:36;;;;;;;30.67;18.50;;;;;;;3.75;98.79;99556.05;644367;221;26943;-76
2020/12/09 06:17:04;;;;;;;28.00;18.17;;;;;;;3.65;98.96;99555.11;644156;221;24818;-76
2020/12/09 06:19:31;;;;;;;30.20;19.20;;;;;;;3.60;99.16;99550.33;645611;221;24833;-75
2020/12/09 06:21:59;;;;;;;27.70;17.40;;;;;;;3.73;99.48;99556.63;648121;221;24830;-76
2020/12/09 06:24:27;;;;;;;26.77;17.60;;;;;;;3.79;99.33;99562.58;647669;221;24833;-75
2020/12/09 06:26:55;;;;;;;24.60;16.30;;;;;;;3.70;99.54;99559.45;644320;221;24912;-75
2020/12/09 06:29:23;;;;;;;34.70;17.40;;;;;;;3.67;98.71;99562.27;647528;222;24819;-75
2020/12/09 06:32:00;;;;;;;29.73;17.70;;;;;;;3.62;99.23;99564.34;645635;221;24846;-75
2020/12/09 06:34:27;;;;;;;27.42;19.20;;;;;;;4.26;97.05;99556.79;640908;221;33066;-76
2020/12/09 06:37:10;;;;;;;26.40;17.63;;;;;;;3.84;97.79;99548.91;641031;222;23691;-75
2020/12/09 06:39:38;;;;;;;25.67;15.90;;;;;;;3.88;98.47;99552.88;647160;221;24914;-76
2020/12/09 06:42:09;;;;;;;27.97;19.50;;;;;;;4.39;96.75;99553.59;641386;221;32758;-76
2020/12/09 06:44:50;;;;;;;28.90;18.20;;;;;;;4.04;97.15;99564.89;646229;221;25919;-76
2020/12/09 06:47:18;;;;;;;35.90;21.37;;;;;;;3.95;97.92;99573.34;642316;222;24836;-76
2020/12/09 06:49:46;;;;;;;62.43;39.10;;;;;;;3.98;98.22;99573.10;643806;222;24849;-75
2020/12/09 06:52:25;;;;;;;42.83;24.60;;;;;;;4.01;97.73;99566.89;646691;222;24824;-76
2020/12/09 06:54:53;;;;;;;33.35;22.60;;;;;;;4.45;95.87;99569.36;641647;221;32773;-76
2020/12/09 06:57:21;;;;;;;28.10;18.70;;;;;;;4.02;97.17;99579.63;640556;222;23741;-76
2020/12/09 06:59:49;;;;;;;25.30;16.43;;;;;;;3.79;97.78;99596.83;647454;219;24815;-76
2020/12/09 07:02:25;;;;;;;34.33;22.23;;;;;;;3.68;99.28;99599.42;643894;221;24816;-76
2020/12/09 07:05:06;;;;;;;29.83;17.80;;;;;;;3.27;100.00;99607.66;648354;221;24823;-75
2020/12/09 07:07:35;;;;;;;26.33;16.80;;;;;;;3.06;100.00;99598.95;638665;221;27961;-75
2020/12/09 07:10:04;;;;;;;32.63;18.87;;;;;;;2.93;100.00;99599.84;643569;221;24842;-76
2020/12/09 07:12:31;;;;;;;30.50;18.73;;;;;;;2.98;100.00;99609.34;644043;220;24815;-75
2020/12/09 07:14:59;;;;;;;32.30;18.30;;;;;;;3.12;100.00;99616.50;647787;220;24800;-76
2020/12/09 07:17:27;;;;;;;32.07;17.67;;;;;;;3.29;100.00;99617.36;642203;221;24816;-75
2020/12/09 07:19:56;;;;;;;31.30;16.97;;;;;;;3.42;100.00;99614.23;643685;219;24831;-75
2020/12/09 07:22:23;;;;;;;37.33;19.87;;;;;;;3.41;100.00;99607.45;645460;222;26304;-76
2020/12/09 07:24:51;;;;;;;39.75;22.93;;;;;;;3.50;100.00;99617.03;632882;222;32727;-75
2020/12/09 07:27:21;;;;;;;32.63;20.00;;;;;;;3.19;100.00;99622.34;630017;225;24792;-76
2020/12/09 07:29:49;;;;;;;36.10;19.63;;;;;;;3.21;100.00;99629.94;644677;221;24861;-75
2020/12/09 07:32:18;;;;;;;33.53;19.00;;;;;;;3.14;100.00;99630.88;646506;221;24829;-76
2020/12/09 07:34:53;;;;;;;30.20;18.60;;;;;;;3.18;100.00;99631.45;642329;221;24808;-72
2020/12/09 07:37:21;;;;;;;35.97;20.40;;;;;;;3.13;100.00;99642.08;640936;221;24840;-72
2020/12/09 07:39:51;;;;;;;29.47;18.20;;;;;;;3.38;100.00;99642.39;645941;221;24837;-74
2020/12/09 07:42:17;;;;;;;34.37;18.93;;;;;;;3.44;100.00;99644.95;646889;221;24830;-76
2020/12/09 07:44:45;;;;;;;31.67;18.80;;;;;;;3.53;100.00;99641.25;646394;221;24827;-74
2020/12/09 07:47:13;;;;;;;26.27;16.97;;;;;;;3.61;100.00;99641.94;647784;221;24828;-75
2020/12/09 07:49:49;;;;;;;34.53;19.97;;;;;;;3.64;100.00;99640.89;647960;222;24847;-76
2020/12/09 07:52:21;;;;;;;34.83;19.70;;;;;;;3.51;100.00;99641.80;642835;221;24829;-74
2020/12/09 07:54:51;;;;;;;28.30;17.83;;;;;;;3.60;100.00;99639.02;643975;221;24824;-75
2020/12/09 07:57:19;;;;;;;34.13;19.10;;;;;;;3.76;100.00;99646.39;640131;221;24822;-76
2020/12/09 07:59:47;;;;;;;34.20;19.50;;;;;;;3.75;99.81;99652.48;644545;221;24814;-76
2020/12/09 08:02:19;;;;;;;44.90;23.03;;;;;;;3.91;99.39;99652.95;641332;222;24825;-75
2020/12/09 08:04:48;;;;;;;46.10;25.05;;;;;;;4.47;97.98;99649.86;633956;221;32715;-74
2020/12/09 08:07:18;;;;;;;48.07;25.47;;;;;;;4.69;96.10;99642.56;639537;222;32800;-74
2020/12/09 08:10:06;;;;;;;42.37;22.80;;;;;;;4.27;97.62;99648.03;638868;222;24851;-74
2020/12/09 08:12:34;;;;;;;43.17;19.23;;;;;;;4.24;98.21;99664.19;645146;221;24847;-72
2020/12/09 08:15:02;;;;;;;31.83;18.50;;;;;;;4.00;98.62;99667.70;645968;220;24797;-72
2020/12/09 08:17:30;;;;;;;36.93;22.90;;;;;;;4.38;97.22;99664.75;638697;217;32825;-72
2020/12/09 08:20:01;;;;;;;35.17;22.25;;;;;;;4.63;95.78;99662.34;635388;221;32757;-74
2020/12/09 08:22:29;;;;;;;32.10;18.80;;;;;;;4.22;97.50;99671.18;643637;221;23905;-72
2020/12/09 08:25:04;;;;;;;33.03;17.67;;;;;;;4.20;97.36;99673.87;645543;220;25053;-72
2020/12/09 08:27:41;;;;;;;29.57;20.80;;;;;;;4.80;96.10;99676.96;639350;220;43505;-74
2020/12/09 08:30:11;;;;;;;26.43;17.90;;;;;;;4.36;97.04;99683.37;643315;221;23718;-73
2020/12/09 08:32:49;;;;;;;27.83;18.33;;;;;;;4.21;96.63;99687.09;641574;221;25988;-73
2020/12/09 08:35:17;;;;;;;23.83;16.70;;;;;;;4.21;96.99;99683.70;643691;221;24815;-72
2020/12/09 08:37:46;;;;;;;25.03;16.30;;;;;;;4.36;97.08;99678.66;642440;221;24850;-72
2020/12/09 08:40:13;;;;;;;23.87;16.70;;;;;;;4.25;96.46;99678.69;644488;222;24941;-75
2020/12/09 08:42:53;;;;;;;28.43;17.47;;;;;;;4.25;97.37;99681.27;642590;221;24813;-75
2020/12/09 08:45:21;;;;;;;28.07;17.60;;;;;;;4.21;96.84;99689.66;645983;222;24861;-75
2020/12/09 08:47:49;;;;;;;28.47;16.83;;;;;;;4.20;97.10;99684.17;643896;221;24829;-75
2020/12/09 08:50:17;;;;;;;28.17;17.20;;;;;;;3.93;97.50;99693.52;647326;221;24808;-75
2020/12/09 08:52:45;;;;;;;26.83;17.90;;;;;;;3.96;98.25;99692.49;645721;221;24802;-73
2020/12/09 08:55:13;;;;;;;29.93;17.57;;;;;;;3.93;98.22;99684.52;643665;221;24834;-76
2020/12/09 08:57:40;;;;;;;29.53;19.13;;;;;;;4.03;98.24;99685.94;646567;221;24833;-75
2020/12/09 09:00:09;;;;;;;28.93;17.57;;;;;;;4.06;98.62;99691.66;643655;222;24798;-76
2020/12/09 09:02:38;;;;;;;26.83;17.50;;;;;;;4.10;98.09;99698.23;648196;221;24865;-75
2020/12/09 09:05:04;;;;;;;29.70;17.90;;;;;;;4.17;98.25;99692.95;644158;221;24787;-76
2020/12/09 09:07:32;;;;;;;32.23;18.43;;;;;;;4.06;98.41;99698.09;640221;221;24809;-76
2020/12/09 09:10:00;;;;;;;25.37;17.53;;;;;;;4.13;98.73;99704.42;643074;221;24865;-76
2020/12/09 09:12:28;;;;;;;27.83;18.20;;;;;;;4.02;99.58;99703.13;647883;222;24825;-75
2020/12/09 09:14:56;;;;;;;24.70;17.23;;;;;;;4.11;98.76;99710.63;646750;221;24828;-75
2020/12/09 09:17:24;;;;;;;29.73;17.90;;;;;;;4.24;99.45;99715.66;641847;221;24815;-75
2020/12/09 09:19:52;;;;;;;28.30;19.60;;;;;;;4.86;97.76;99704.80;635913;221;33146;-76
2020/12/09 09:22:19;;;;;;;26.20;17.53;;;;;;;4.76;96.96;99708.09;648155;219;24850;-76
2020/12/09 09:24:47;;;;;;;29.60;16.97;;;;;;;4.91;95.76;99710.39;645072;221;24814;-76
2020/12/09 09:27:15;;;;;;;26.03;16.37;;;;;;;4.92;95.94;99710.27;647993;220;24815;-74
2020/12/09 09:29:43;;;;;;;24.87;16.20;;;;;;;4.82;95.28;99711.96;639693;220;24775;-76
2020/12/09 09:32:12;;;;;;;21.43;14.90;;;;;;;4.96;95.80;99707.00;639716;221;24796;-77
2020/12/09 09:34:39;;;;;;;24.80;15.90;;;;;;;5.29;95.41;99710.73;634567;225;24837;-76
2020/12/09 09:37:08;;;;;;;24.70;16.73;;;;;;;5.38;94.09;99702.73;650406;221;24771;-77
2020/12/09 09:39:36;;;;;;;23.63;15.50;;;;;;;5.43;94.53;99706.22;648641;221;24758;-76
2020/12/09 09:42:04;;;;;;;28.60;16.57;;;;;;;5.48;93.82;99705.36;636253;224;24895;-76
2020/12/09 09:44:32;;;;;;;24.70;17.80;;;;;;;5.82;93.00;99696.50;645058;221;32614;-77
2020/12/09 09:47:00;;;;;;;19.93;15.00;;;;;;;5.58;92.86;99697.23;637552;225;23676;-75
2020/12/09 09:49:28;;;;;;;26.40;15.07;;;;;;;5.53;93.66;99695.04;637269;224;26967;-76
2020/12/09 09:51:56;;;;;;;22.50;15.10;;;;;;;5.45;93.68;99696.13;636758;225;24805;-76
2020/12/09 09:54:24;;;;;;;21.03;14.30;;;;;;;5.35;93.96;99699.94;648595;221;24782;-76
2020/12/09 09:56:52;;;;;;;21.13;14.87;;;;;;;5.36;94.03;99693.84;635602;225;24838;-76
2020/12/09 09:59:20;;;;;;;19.73;14.17;;;;;;;5.49;93.29;99689.80;648122;222;24830;-76
2020/12/09 10:01:48;;;;;;;19.90;13.40;;;;;;;5.61;93.46;99695.21;650043;221;24806;-76
2020/12/09 10:04:15;;;;;;;18.53;13.57;;;;;;;5.54;93.42;99693.28;636167;225;27038;-75
2020/12/09 10:06:43;;;;;;;21.90;12.50;;;;;;;5.55;93.37;99689.28;636219;225;24846;-75
2020/12/09 10:09:11;;;;;;;24.07;14.47;;;;;;;5.57;93.82;99687.86;644121;222;24781;-76
2020/12/09 10:11:39;;;;;;;21.20;13.77;;;;;;;5.64;92.69;99685.13;648324;222;28015;-75
2020/12/09 10:14:07;;;;;;;19.37;13.30;;;;;;;5.62;93.45;99692.16;648393;221;24981;-74
2020/12/09 10:16:35;;;;;;;20.95;15.60;;;;;;;6.07;93.17;99694.02;642918;221;32634;-76
2020/12/09 10:19:03;;;;;;;20.50;14.70;;;;;;;5.66;94.14;99696.14;648476;221;23677;-76
2020/12/09 10:21:31;;;;;;;23.33;15.70;;;;;;;5.75;93.63;99706.16;648595;221;24764;-76
2020/12/09 10:23:59;;;;;;;23.83;14.63;;;;;;;5.63;93.66;99704.11;648548;222;24804;-76
2020/12/09 10:26:28;;;;;;;20.57;13.60;;;;;;;5.70;93.11;99700.09;648382;221;24852;-76
2020/12/09 10:29:00;;;;;;;24.73;15.43;;;;;;;5.61;92.13;99691.81;648647;221;24772;-75
2020/12/09 10:31:24;;;;;;;23.67;15.47;;;;;;;5.49;92.30;99692.81;648007;221;24775;-75
2020/12/09 10:33:52;;;;;;;23.12;16.82;;;;;;;5.66;91.51;99683.24;644966;218;32721;-75
2020/12/09 10:36:23;;;;;;;22.00;17.32;;;;;;;5.97;90.16;99675.55;644205;221;32603;-75
2020/12/09 10:38:52;;;;;;;20.90;14.53;;;;;;;5.58;89.34;99678.70;649468;220;23666;-75
2020/12/09 10:41:20;;;;;;;19.67;14.53;;;;;;;5.50;91.05;99684.16;649644;221;24738;-75
2020/12/09 10:43:50;;;;;;;20.13;14.23;;;;;;;5.51;90.91;99682.75;649557;220;25072;-77
2020/12/09 10:46:18;;;;;;;21.80;14.87;;;;;;;5.33;92.40;99689.38;649156;221;24788;-76
2020/12/09 10:48:46;;;;;;;20.87;13.73;;;;;;;5.60;91.80;99690.18;648962;221;24880;-76
2020/12/09 10:51:15;;;;;;;31.30;21.90;;;;;;;6.11;90.02;99685.06;643473;221;32618;-75
2020/12/09 10:53:43;;;;;;;36.70;25.50;;;;;;;5.94;90.26;99685.67;648879;221;23675;-75
2020/12/09 10:56:10;;;;;;;30.23;23.60;;;;;;;6.04;89.78;99683.11;644318;221;24749;-75
2020/12/09 10:58:38;;;;;;;27.77;19.00;;;;;;;5.93;89.26;99682.27;648929;221;24805;-76
2020/12/09 11:01:06;;;;;;;23.57;16.17;;;;;;;5.84;89.20;99682.18;648834;221;25905;-75
2020/12/09 11:03:34;;;;;;;22.70;16.20;;;;;;;5.90;89.58;99679.92;649244;221;30192;-76
2020/12/09 11:06:02;;;;;;;22.20;16.03;;;;;;;5.86;89.67;99675.94;648826;221;24800;-76
2020/12/09 11:08:30;;;;;;;23.93;15.40;;;;;;;5.85;90.08;99682.05;648535;221;24788;-76
2020/12/09 11:10:58;;;;;;;24.80;16.33;;;;;;;6.06;90.20;99678.66;636196;226;24818;-76
2020/12/09 11:13:26;;;;;;;23.83;15.07;;;;;;;6.04;89.84;99677.95;636234;226;24805;-74
2020/12/09 11:15:54;;;;;;;23.47;15.77;;;;;;;6.16;89.98;99680.31;648426;221;29023;-76
2020/12/09 11:18:22;;;;;;;25.37;16.47;;;;;;;6.37;89.65;99666.06;648419;221;25856;-76
2020/12/09 11:20:50;;;;;;;25.47;15.70;;;;;;;6.25;89.28;99669.21;649326;221;24770;-76
2020/12/09 11:23:18;;;;;;;18.73;13.43;;;;;;;6.28;88.88;99666.84;645205;221;24841;-76
2020/12/09 11:25:46;;;;;;;19.37;13.63;;;;;;;6.39;88.13;99665.45;636427;225;24837;-76
2020/12/09 11:28:14;;;;;;;19.70;13.47;;;;;;;6.47;88.17;99651.37;636044;226;24832;-76
2020/12/09 11:30:42;;;;;;;21.40;13.90;;;;;;;6.49;87.70;99646.92;635556;225;24831;-76